Time;durP1;ratioP1;P1;durP2;ratioP2;P2;SDS_P1;SDS_P2;PMS_P1;PMS_P2;Temp;Humidity;BMP_temperature;BMP_pressure;BME280_temperature;BME280_humidity;BME280_pressure;Samples;Min_cycle;Max_cycle;Signal;HPM_P1;HPM_P2
2023/10/23 00:00:20;;;;;;;;;;;;;;;11.75;64.96;97781.06;4940214;29;20289;-75
2023/10/23 00:03:08;;;;;;;;;;;;;;;11.75;64.63;97787.31;4942943;28;20136;-76
2023/10/23 00:05:56;;;;;;;;;;;;;;;11.72;64.69;97787.97;4957558;28;19922;-76
2023/10/23 00:08:44;;;;;;;;;;;;;;;11.63;64.83;97794.53;4936626;28;19934;-76
2023/10/23 00:11:32;;;;;;;;;;;;;;;11.48;65.32;97791.16;4955160;28;19968;-75
2023/10/23 00:14:20;;;;;;;;;;;;;;;11.32;66.00;97794.66;4957631;28;19922;-76
2023/10/23 00:17:09;;;;;;;;;;;;;;;11.33;66.33;97797.06;4946934;28;20367;-76
2023/10/23 00:19:57;;;;;;;;;;;;;;;11.34;66.26;97793.22;4953628;28;19922;-75
2023/10/23 00:22:45;;;;;;;;;;;;;;;11.35;66.04;97794.84;4961920;28;19926;-75
2023/10/23 00:25:33;;;;;;;;;;;;;;;11.40;65.76;97791.97;4955306;28;20397;-75
2023/10/23 00:28:21;;;;;;;;;;;;;;;11.42;65.46;97800.59;4958402;28;19922;-76
2023/10/23 00:31:09;;;;;;;;;;;;;;;11.30;66.03;97811.31;4951826;28;19922;-76
2023/10/23 00:33:59;;;;;;;;;;;;;;;11.40;65.68;97805.56;4954863;28;19941;-76
2023/10/23 00:36:47;;;;;;;;;;;;;;;11.20;66.34;97801.53;4939501;28;20009;-76
2023/10/23 00:39:35;;;;;;;;;;;;;;;11.15;66.65;97796.25;4937086;28;19922;-75
2023/10/23 00:42:23;;;;;;;;;;;;;;;11.15;66.76;97798.97;4945233;28;19931;-76
2023/10/23 00:45:11;;;;;;;;;;;;;;;10.94;67.34;97795.25;4952524;28;19923;-76
2023/10/23 00:48:00;;;;;;;;;;;;;;;10.90;67.87;97800.50;4943212;29;19923;-76
2023/10/23 00:50:50;;;;;;;;;;;;;;;10.93;67.84;97799.88;4956382;28;19926;-75
2023/10/23 00:53:39;;;;;;;;;;;;;;;11.04;67.37;97810.47;4940434;29;19926;-76
2023/10/23 00:56:27;;;;;;;;;;;;;;;11.05;66.99;97810.16;4935458;28;19953;-76
2023/10/23 00:59:15;;;;;;;;;;;;;;;10.96;67.24;97810.13;4939455;28;19922;-76
2023/10/23 01:02:04;;;;;;;;;;;;;;;10.98;67.21;97805.19;4966703;28;19933;-76
2023/10/23 01:04:52;;;;;;;;;;;;;;;11.01;66.98;97801.81;4953898;28;20299;-75
2023/10/23 01:07:41;;;;;;;;;;;;;;;10.87;67.75;97795.72;4970829;28;19926;-75
2023/10/23 01:10:29;;;;;;;;;;;;;;;10.96;67.12;97801.97;4954236;28;19922;-76
2023/10/23 01:13:18;;;;;;;;;;;;;;;11.04;66.79;97807.75;4967899;28;19929;-76
2023/10/23 01:16:06;;;;;;;;;;;;;;;11.09;66.65;97805.69;4972245;28;19927;-75
2023/10/23 01:18:58;;;;;;;;;;;;;;;11.07;66.65;97817.97;4952267;28;19922;-76
2023/10/23 01:21:46;;;;;;;;;;;;;;;11.07;66.60;97815.25;4966561;28;19934;-75
2023/10/23 01:24:35;;;;;;;;;;;;;;;11.07;66.43;97810.63;4963694;28;19926;-76
2023/10/23 01:27:25;;;;;;;;;;;;;;;11.04;66.46;97814.00;4968534;28;20299;-76
2023/10/23 01:30:13;;;;;;;;;;;;;;;11.08;66.40;97827.72;4969382;28;19922;-76
2023/10/23 01:33:01;;;;;;;;;;;;;;;11.02;66.72;97822.47;4970905;28;19926;-76
2023/10/23 01:35:50;;;;;;;;;;;;;;;10.97;66.66;97822.63;4950525;28;19950;-76
2023/10/23 01:38:38;;;;;;;;;;;;;;;10.95;66.92;97819.38;4956584;28;19933;-76
2023/10/23 01:41:27;;;;;;;;;;;;;;;10.86;66.65;97807.69;4971602;28;20307;-75
2023/10/23 01:44:16;;;;;;;;;;;;;;;10.79;67.02;97814.72;4952633;28;19930;-76
2023/10/23 01:47:05;;;;;;;;;;;;;;;10.85;66.89;97813.44;4970227;28;19933;-76
2023/10/23 01:49:54;;;;;;;;;;;;;;;10.83;67.03;97816.47;4969083;28;20053;-76
2023/10/23 01:52:42;;;;;;;;;;;;;;;10.79;67.02;97814.72;4961563;28;20012;-75
2023/10/23 01:55:30;;;;;;;;;;;;;;;10.80;66.80;97810.88;4967503;28;19922;-75
2023/10/23 01:58:18;;;;;;;;;;;;;;;10.80;66.70;97808.94;4965236;28;19985;-75
2023/10/23 02:01:07;;;;;;;;;;;;;;;10.83;66.59;97805.63;4939973;28;19938;-75
2023/10/23 02:03:56;;;;;;;;;;;;;;;10.80;66.92;97811.66;4944574;28;19935;-76
2023/10/23 02:06:44;;;;;;;;;;;;;;;10.75;66.87;97804.44;4941519;28;20052;-75
2023/10/23 02:09:32;;;;;;;;;;;;;;;10.75;66.90;97809.09;4948671;28;19922;-75
2023/10/23 02:12:22;;;;;;;;;;;;;;;10.71;67.00;97810.84;4952984;28;19929;-75
2023/10/23 02:15:12;;;;;;;;;;;;;;;10.63;67.21;97817.03;4937309;28;19934;-76
2023/10/23 02:18:03;;;;;;;;;;;;;;;10.66;67.06;97814.50;4935103;28;19989;-75
2023/10/23 02:20:51;;;;;;;;;;;;;;;10.51;67.52;97814.13;4948182;28;19922;-76
2023/10/23 02:23:39;;;;;;;;;;;;;;;10.55;67.27;97813.19;4934384;28;19933;-76
2023/10/23 02:26:40;;;;;;;;;;;;;;;10.60;67.30;97820.38;4935026;28;19930;-75
2023/10/23 02:29:28;;;;;;;;;;;;;;;10.47;67.53;97814.75;4945991;28;20443;-75
2023/10/23 02:32:16;;;;;;;;;;;;;;;10.52;67.40;97815.72;4937574;28;19923;-75
2023/10/23 02:35:06;;;;;;;;;;;;;;;10.52;67.44;97808.38;4951097;28;19934;-76
2023/10/23 02:37:54;;;;;;;;;;;;;;;10.47;67.61;97808.50;4938579;28;19923;-75
2023/10/23 02:40:50;;;;;;;;;;;;;;;10.51;67.49;97811.41;4948994;28;19922;-75
2023/10/23 02:43:38;;;;;;;;;;;;;;;10.50;67.55;97813.31;4932201;28;19935;-75
2023/10/23 02:46:26;;;;;;;;;;;;;;;10.59;67.07;97816.06;4936173;28;19969;-75
2023/10/23 02:49:14;;;;;;;;;;;;;;;10.54;67.23;97819.72;4933980;28;19934;-75
2023/10/23 02:52:04;;;;;;;;;;;;;;;10.48;67.46;97824.47;4946927;28;19922;-75
2023/10/23 02:54:52;;;;;;;;;;;;;;;10.52;67.28;97826.59;4938256;28;19957;-76
2023/10/23 02:57:40;;;;;;;;;;;;;;;10.46;67.28;97828.63;4953797;28;19926;-76
2023/10/23 03:00:30;;;;;;;;;;;;;;;10.48;67.02;97829.91;4964880;28;20578;-76
2023/10/23 03:03:18;;;;;;;;;;;;;;;10.36;67.63;97828.91;4972105;28;19922;-75
2023/10/23 03:06:08;;;;;;;;;;;;;;;10.25;67.94;97833.81;4961505;28;19934;-76
2023/10/23 03:08:57;;;;;;;;;;;;;;;10.26;67.83;97829.97;4955063;28;20256;-75
2023/10/23 03:11:46;;;;;;;;;;;;;;;9.97;68.56;97823.06;4965953;28;20383;-75
2023/10/23 03:14:38;;;;;;;;;;;;;;;9.98;68.43;97829.28;4961304;28;19926;-76
2023/10/23 03:17:26;;;;;;;;;;;;;;;9.96;68.55;97835.03;4967673;28;20375;-75
2023/10/23 03:20:14;;;;;;;;;;;;;;;10.01;68.24;97839.50;4959621;28;19926;-75
2023/10/23 03:23:03;;;;;;;;;;;;;;;10.02;68.01;97843.06;4972199;28;19922;-75
2023/10/23 03:25:52;;;;;;;;;;;;;;;9.95;67.97;97841.53;4971086;28;20395;-75
2023/10/23 03:28:40;;;;;;;;;;;;;;;9.86;68.05;97834.47;4955991;28;19988;-75
2023/10/23 03:31:28;;;;;;;;;;;;;;;9.97;67.92;97836.63;4955320;28;19929;-76
2023/10/23 03:34:16;;;;;;;;;;;;;;;10.05;67.70;97839.72;4969981;28;20364;-76
2023/10/23 03:37:04;;;;;;;;;;;;;;;10.02;67.83;97841.13;4951184;28;19930;-76
2023/10/23 03:39:53;;;;;;;;;;;;;;;10.14;67.62;97837.84;4967996;28;19932;-76
2023/10/23 03:42:42;;;;;;;;;;;;;;;10.12;67.75;97840.06;4956169;28;19922;-75
2023/10/23 03:45:30;;;;;;;;;;;;;;;10.09;67.69;97844.22;4971084;28;20304;-75
2023/10/23 03:48:18;;;;;;;;;;;;;;;10.12;67.48;97840.06;4959337;28;20050;-75
2023/10/23 03:51:06;;;;;;;;;;;;;;;10.13;67.30;97841.69;4974191;28;20030;-76
2023/10/23 03:53:54;;;;;;;;;;;;;;;9.95;67.76;97841.53;4974493;28;20427;-75
2023/10/23 03:56:43;;;;;;;;;;;;;;;9.85;68.17;97841.78;4969851;28;19945;-75
2023/10/23 03:59:33;;;;;;;;;;;;;;;9.91;67.87;97839.78;4968466;28;20380;-75
2023/10/23 04:02:20;;;;;;;;;;;;;;;9.84;67.53;97845.63;4969756;28;19981;-75
2023/10/23 04:05:09;;;;;;;;;;;;;;;9.83;67.75;97844.03;4968885;28;20399;-75
2023/10/23 04:07:57;;;;;;;;;;;;;;;9.81;67.91;97843.53;4954496;28;19926;-75
2023/10/23 04:10:45;;;;;;;;;;;;;;;9.87;67.45;97845.03;4970408;28;20008;-75
2023/10/23 04:13:34;;;;;;;;;;;;;;;9.98;67.10;97843.66;4967270;28;19976;-75
2023/10/23 04:16:24;;;;;;;;;;;;;;;10.02;66.91;97849.28;4965025;28;19931;-75
2023/10/23 04:19:15;;;;;;;;;;;;;;;10.05;66.23;97850.56;4968731;28;20381;-75
2023/10/23 04:22:06;;;;;;;;;;;;;;;10.13;66.25;97836.25;4969253;28;19934;-75
2023/10/23 04:24:54;;;;;;;;;;;;;;;10.08;65.84;97841.81;4963917;28;20072;-75
2023/10/23 04:27:42;;;;;;;;;;;;;;;10.02;65.96;97843.84;4960683;28;19929;-75
2023/10/23 04:30:30;;;;;;;;;;;;;;;10.06;65.84;97844.00;4970927;28;19932;-76
2023/10/23 04:33:23;;;;;;;;;;;;;;;10.16;65.40;97833.72;4967226;28;19937;-75
2023/10/23 04:36:11;;;;;;;;;;;;;;;10.23;64.98;97833.28;4973558;28;19933;-75
2023/10/23 04:38:59;;;;;;;;;;;;;;;10.16;65.36;97841.06;4947658;28;20039;-75
2023/10/23 04:41:47;;;;;;;;;;;;;;;10.07;65.44;97842.94;4958114;28;19929;-75
2023/10/23 04:44:35;;;;;;;;;;;;;;;10.22;65.07;97837.09;4970315;28;20320;-75
2023/10/23 04:47:23;;;;;;;;;;;;;;;10.20;64.77;97828.47;4968841;28;19935;-75
2023/10/23 04:50:13;;;;;;;;;;;;;;;10.19;65.14;97843.16;4968930;28;20285;-76
2023/10/23 04:53:01;;;;;;;;;;;;;;;10.25;64.73;97839.22;4970186;28;20271;-76
2023/10/23 04:55:50;;;;;;;;;;;;;;;10.10;64.94;97839.59;4971257;28;21143;-75
2023/10/23 04:58:40;;;;;;;;;;;;;;;10.13;64.86;97839.78;4956807;28;19926;-75
2023/10/23 05:01:28;;;;;;;;;;;;;;;10.23;64.45;97831.41;4958648;28;20029;-75
2023/10/23 05:04:17;;;;;;;;;;;;;;;10.15;64.59;97839.44;4968018;28;19922;-75
2023/10/23 05:07:06;;;;;;;;;;;;;;;9.96;65.19;97837.75;4948695;28;20376;-75
2023/10/23 05:09:54;;;;;;;;;;;;;;;10.00;65.03;97839.81;4971014;28;20121;-76
2023/10/23 05:12:43;;;;;;;;;;;;;;;9.89;64.95;97834.66;4966184;28;19954;-75
2023/10/23 05:15:33;;;;;;;;;;;;;;;9.75;65.04;97838.53;4966475;28;19934;-76
2023/10/23 05:18:21;;;;;;;;;;;;;;;9.58;66.00;97837.28;4959312;28;19938;-75
2023/10/23 05:21:09;;;;;;;;;;;;;;;9.66;65.84;97830.34;4965222;28;20267;-75
2023/10/23 05:24:00;;;;;;;;;;;;;;;9.67;65.77;97838.16;4967013;28;19969;-75
2023/10/23 05:26:48;;;;;;;;;;;;;;;9.61;65.79;97830.44;4964511;28;20021;-75
2023/10/23 05:29:36;;;;;;;;;;;;;;;9.69;65.63;97832.41;4964524;28;20022;-75
2023/10/23 05:32:24;;;;;;;;;;;;;;;9.79;64.64;97832.19;4968766;28;19965;-75
2023/10/23 05:35:12;;;;;;;;;;;;;;;9.90;64.15;97838.97;4972303;28;20318;-75
2023/10/23 05:38:03;;;;;;;;;;;;;;;9.83;64.46;97838.59;4967594;28;19930;-75
2023/10/23 05:40:57;;;;;;;;;;;;;;;9.93;63.94;97832.13;4967135;28;20380;-75
2023/10/23 05:43:44;;;;;;;;;;;;;;;9.94;63.88;97842.66;4972929;28;19922;-75
2023/10/23 05:46:33;;;;;;;;;;;;;;;9.88;64.04;97837.69;4972869;28;19922;-75
2023/10/23 05:49:21;;;;;;;;;;;;;;;9.94;64.18;97837.25;4971258;28;19926;-75
2023/10/23 05:52:11;;;;;;;;;;;;;;;9.79;64.42;97842.22;4971368;28;19926;-75
2023/10/23 05:55:04;;;;;;;;;;;;;;;9.92;64.14;97846.81;4967929;28;19922;-75
2023/10/23 05:57:54;;;;;;;;;;;;;;;9.74;64.34;97845.06;4971316;28;20085;-75
2023/10/23 06:00:42;;;;;;;;;;;;;;;9.72;64.32;97850.81;4972741;28;19985;-75
2023/10/23 06:03:30;;;;;;;;;;;;;;;9.68;64.52;97852.50;4952950;28;20015;-75
2023/10/23 06:06:18;;;;;;;;;;;;;;;9.70;64.53;97858.47;4968213;28;19929;-75
2023/10/23 06:09:07;;;;;;;;;;;;;;;9.78;64.05;97851.47;4969049;28;19922;-75
2023/10/23 06:11:56;;;;;;;;;;;;;;;9.60;64.48;97861.41;4973096;28;19925;-75
2023/10/23 06:14:47;;;;;;;;;;;;;;;9.59;64.57;97859.81;4972415;28;19922;-75
2023/10/23 06:17:35;;;;;;;;;;;;;;;9.45;65.15;97866.03;4962288;28;19922;-75
2023/10/23 06:20:23;;;;;;;;;;;;;;;9.39;65.41;97869.19;4962784;28;19922;-75
2023/10/23 06:23:11;;;;;;;;;;;;;;;9.37;65.39;97872.16;4972050;28;20068;-75
2023/10/23 06:26:00;;;;;;;;;;;;;;;9.45;65.21;97870.66;4959566;28;20009;-75
2023/10/23 06:28:48;;;;;;;;;;;;;;;9.53;64.90;97871.84;4970140;28;19945;-75
2023/10/23 06:31:37;;;;;;;;;;;;;;;9.60;64.85;97869.53;4965310;28;20126;-76
2023/10/23 06:34:25;;;;;;;;;;;;;;;9.61;64.67;97863.78;4967070;28;20302;-75
2023/10/23 06:37:13;;;;;;;;;;;;;;;9.66;64.45;97871.81;4969966;28;20023;-75
2023/10/23 06:40:04;;;;;;;;;;;;;;;9.68;64.23;97864.16;4972095;28;19985;-75
2023/10/23 06:42:52;;;;;;;;;;;;;;;9.81;64.16;97873.38;4966494;28;19926;-75
2023/10/23 06:45:40;;;;;;;;;;;;;;;9.54;64.84;97881.59;4968214;28;19942;-74
2023/10/23 06:48:49;;;;;;;;;;;;;;;9.52;65.22;97881.09;4955472;28;19923;-74
2023/10/23 06:51:37;;;;;;;;;;;;;;;9.46;65.23;97877.69;4970559;28;19930;-75
2023/10/23 06:54:27;;;;;;;;;;;;;;;9.48;65.34;97880.09;4955924;28;19922;-74
2023/10/23 06:57:17;;;;;;;;;;;;;;;9.49;65.34;97881.72;4962667;28;19928;-74
2023/10/23 07:00:07;;;;;;;;;;;;;;;9.49;65.55;97884.44;4965303;28;19929;-75
2023/10/23 07:02:55;;;;;;;;;;;;;;;9.54;65.32;97876.19;4970356;28;19926;-74
2023/10/23 07:05:45;;;;;;;;;;;;;;;9.58;65.15;97872.53;4972873;28;19933;-75
2023/10/23 07:08:34;;;;;;;;;;;;;;;9.52;65.48;97872.94;4970377;28;19922;-75
2023/10/23 07:11:24;;;;;;;;;;;;;;;9.67;65.55;97881.56;4956599;28;20012;-74
2023/10/23 07:14:14;;;;;;;;;;;;;;;9.67;65.52;97884.25;4958116;28;20021;-75
2023/10/23 07:17:02;;;;;;;;;;;;;;;9.59;65.91;97884.22;4955961;28;20016;-75
2023/10/23 07:19:51;;;;;;;;;;;;;;;9.43;66.46;97872.91;4961375;28;19926;-75
2023/10/23 07:22:41;;;;;;;;;;;;;;;9.60;65.78;97877.66;4960662;28;20042;-74
2023/10/23 07:25:29;;;;;;;;;;;;;;;9.62;65.81;97872.72;4968717;28;20033;-74
2023/10/23 07:28:17;;;;;;;;;;;;;;;9.54;66.27;97874.28;4970001;28;19926;-75
2023/10/23 07:31:05;;;;;;;;;;;;;;;9.62;66.09;97870.81;4960243;28;19922;-75
2023/10/23 07:33:54;;;;;;;;;;;;;;;9.57;66.63;97867.41;4959332;28;19922;-75
2023/10/23 07:36:42;;;;;;;;;;;;;;;9.60;66.75;97867.63;4971402;28;19933;-74
2023/10/23 07:39:31;;;;;;;;;;;;;;;9.73;66.58;97859.75;4957074;28;19966;-74
2023/10/23 07:42:22;;;;;;;;;;;;;;;9.75;66.74;97858.34;4969957;28;19929;-75
2023/10/23 07:45:13;;;;;;;;;;;;;;;9.76;66.98;97865.38;4975218;28;20252;-74
2023/10/23 07:48:01;;;;;;;;;;;;;;;9.73;67.09;97860.53;4969805;28;19922;-74
2023/10/23 07:50:49;;;;;;;;;;;;;;;9.96;66.59;97858.66;4962558;28;19929;-75
2023/10/23 07:53:38;;;;;;;;;;;;;;;10.05;66.48;97847.84;4974372;28;19978;-74
2023/10/23 07:56:27;;;;;;;;;;;;;;;10.17;66.46;97845.38;4970093;28;19922;-74
2023/10/23 07:59:18;;;;;;;;;;;;;;;10.16;66.63;97846.47;4971620;28;20411;-74
2023/10/23 08:02:06;;;;;;;;;;;;;;;10.10;67.27;97842.28;4966797;28;20077;-74
2023/10/23 08:04:54;;;;;;;;;;;;;;;10.19;67.68;97848.59;4957520;28;20391;-75
2023/10/23 08:07:42;;;;;;;;;;;;;;;10.30;67.50;97860.03;4975064;28;20446;-75
2023/10/23 08:10:30;;;;;;;;;;;;;;;10.22;68.22;97856.91;4968762;28;20017;-74
2023/10/23 08:13:23;;;;;;;;;;;;;;;10.30;67.85;97849.97;4970585;28;19929;-75
2023/10/23 08:16:11;;;;;;;;;;;;;;;10.33;67.81;97838.47;4974269;28;19933;-74
2023/10/23 08:18:59;;;;;;;;;;;;;;;10.52;67.35;97838.25;4972480;28;19922;-75
2023/10/23 08:21:48;;;;;;;;;;;;;;;10.34;68.46;97833.84;4970241;28;19922;-75
2023/10/23 08:24:36;;;;;;;;;;;;;;;10.61;67.75;97830.94;4963535;28;19922;-74
2023/10/23 08:27:24;;;;;;;;;;;;;;;10.69;67.59;97826.66;4965122;28;19923;-74
2023/10/23 08:30:14;;;;;;;;;;;;;;;10.88;66.85;97821.78;4970385;28;19949;-75
2023/10/23 08:33:05;;;;;;;;;;;;;;;10.96;66.91;97829.13;4972041;28;20287;-75
2023/10/23 08:35:54;;;;;;;;;;;;;;;11.07;66.71;97820.69;4970991;28;20060;-74
2023/10/23 08:38:42;;;;;;;;;;;;;;;11.11;66.55;97827.09;4972004;28;19949;-75
2023/10/23 08:41:30;;;;;;;;;;;;;;;11.07;66.67;97831.56;4971390;28;19922;-74
2023/10/23 08:44:18;;;;;;;;;;;;;;;11.32;66.58;97821.88;4971589;28;19922;-74
2023/10/23 08:47:08;;;;;;;;;;;;;;;11.43;65.75;97829.41;4972441;28;20419;-75
2023/10/23 08:50:02;;;;;;;;;;;;;;;11.48;66.43;97833.88;4965383;28;19922;-74
2023/10/23 08:52:50;;;;;;;;;;;;;;;11.62;66.06;97831.81;4972364;28;20024;-75
2023/10/23 08:55:42;;;;;;;;;;;;;;;11.74;65.51;97833.91;4973476;28;20012;-74
2023/10/23 08:58:30;;;;;;;;;;;;;;;11.82;65.29;97830.38;4971519;28;19933;-74
2023/10/23 09:01:18;;;;;;;;;;;;;;;11.87;65.58;97827.50;4947379;29;20067;-74
2023/10/23 09:04:11;;;;;;;;;;;;;;;11.94;65.50;97827.03;4952132;29;20447;-76
2023/10/23 09:07:00;;;;;;;;;;;;;;;12.12;65.07;97822.38;4951154;29;19922;-75
2023/10/23 09:09:48;;;;;;;;;;;;;;;12.17;64.69;97824.91;4951216;28;19923;-75
2023/10/23 09:12:37;;;;;;;;;;;;;;;12.18;65.08;97810.16;4961549;28;19928;-75
2023/10/23 09:15:25;;;;;;;;;;;;;;;12.13;65.23;97799.44;4950685;28;19922;-75
2023/10/23 09:18:14;;;;;;;;;;;;;;;12.28;65.35;97793.47;4953314;29;20394;-75
2023/10/23 09:21:04;;;;;;;;;;;;;;;12.30;65.10;97791.22;4950066;28;19922;-75
2023/10/23 09:23:53;;;;;;;;;;;;;;;12.39;65.21;97792.00;4945753;29;19929;-75
2023/10/23 09:26:41;;;;;;;;;;;;;;;12.29;65.68;97790.44;4942969;29;19978;-75
2023/10/23 09:29:29;;;;;;;;;;;;;;;12.39;65.47;97788.47;4949727;29;19923;-75
2023/10/23 09:32:17;;;;;;;;;;;;;;;12.53;65.04;97794.53;4951055;29;19976;-76
2023/10/23 09:35:06;;;;;;;;;;;;;;;12.62;64.95;97789.81;4951243;29;20364;-75
2023/10/23 09:37:55;;;;;;;;;;;;;;;12.69;64.96;97783.88;4942715;29;20417;-75
2023/10/23 09:40:44;;;;;;;;;;;;;;;12.75;64.94;97785.28;4953229;29;20261;-75
2023/10/23 09:43:33;;;;;;;;;;;;;;;12.70;66.34;97782.75;4940703;29;19922;-75
2023/10/23 09:46:20;;;;;;;;;;;;;;;12.83;65.61;97781.72;4931717;29;19926;-75
2023/10/23 09:49:09;;;;;;;;;;;;;;;12.81;65.21;97783.97;4951837;29;19981;-75
2023/10/23 09:51:57;;;;;;;;;;;;;;;12.95;65.35;97784.56;4954790;29;20277;-75
2023/10/23 09:54:46;;;;;;;;;;;;;;;12.89;66.17;97780.41;4944563;29;19926;-75
2023/10/23 09:57:35;;;;;;;;;;;;;;;13.00;65.75;97776.19;4953964;29;19953;-75
2023/10/23 10:00:24;;;;;;;;;;;;;;;12.93;66.66;97773.16;4966725;28;19997;-75
2023/10/23 10:03:18;;;;;;;;;;;;;;;13.15;65.78;97777.50;4972437;28;20369;-75
2023/10/23 10:06:09;;;;;;;;;;;;;;;13.30;65.39;97796.06;4969371;28;19926;-75
2023/10/23 10:08:57;;;;;;;;;;;;;;;13.32;64.94;97795.75;4973400;28;20091;-75
2023/10/23 10:11:47;;;;;;;;;;;;;;;13.35;64.99;97797.78;4972153;28;19934;-75
2023/10/23 10:14:35;;;;;;;;;;;;;;;13.40;64.79;97785.88;4971901;28;19984;-75
2023/10/23 10:17:23;;;;;;;;;;;;;;;13.45;65.10;97772.84;4959420;28;19941;-76
2023/10/23 10:20:11;;;;;;;;;;;;;;;13.59;64.31;97770.66;4967459;28;19922;-76
2023/10/23 10:23:12;;;;;;;;;;;;;;;13.70;63.97;97775.69;4966504;28;19938;-76
2023/10/23 10:26:00;;;;;;;;;;;;;;;13.79;63.36;97773.66;4970251;28;20434;-75
2023/10/23 10:28:53;;;;;;;;;;;;;;;13.86;63.42;97757.56;4966136;28;20029;-76
2023/10/23 10:32:04;;;;;;;;;;;;;;;13.92;64.37;97756.22;4958070;28;19927;-76
2023/10/23 10:35:00;;;;;;;;;;;;;;;13.88;63.13;97758.00;4968066;28;19922;-75
2023/10/23 10:37:49;;;;;;;;;;;;;;;13.99;62.83;97750.19;4950772;28;19949;-75
2023/10/23 10:40:54;;;;;;;;;;;;;;;14.04;62.99;97748.03;4963723;28;19922;-75
2023/10/23 10:43:43;;;;;;;;;;;;;;;14.08;62.91;97727.09;4967931;28;19933;-75
2023/10/23 10:46:32;;;;;;;;;;;;;;;14.16;62.71;97715.28;4955499;28;19993;-75
2023/10/23 10:49:22;;;;;;;;;;;;;;;14.21;62.98;97705.25;4966305;28;19945;-76
2023/10/23 10:52:16;;;;;;;;;;;;;;;14.27;62.73;97714.84;4962401;28;19929;-75
2023/10/23 10:55:04;;;;;;;;;;;;;;;14.30;62.37;97714.16;4963675;28;19922;-76
2023/10/23 10:57:55;;;;;;;;;;;;;;;14.30;62.09;97711.44;4972698;28;19929;-76
2023/10/23 11:00:43;;;;;;;;;;;;;;;14.35;62.17;97713.94;4947574;28;19961;-76
2023/10/23 11:03:34;;;;;;;;;;;;;;;14.38;61.09;97707.78;4964511;28;19923;-75
2023/10/23 11:06:22;;;;;;;;;;;;;;;14.44;59.92;97711.13;4961781;28;19929;-76
2023/10/23 11:09:11;;;;;;;;;;;;;;;14.46;59.96;97715.09;4955639;28;19934;-75
2023/10/23 11:12:01;;;;;;;;;;;;;;;14.54;59.80;97708.75;4962198;28;19986;-75
2023/10/23 11:14:51;;;;;;;;;;;;;;;14.58;59.34;97704.16;4938279;28;19926;-75
2023/10/23 11:17:40;;;;;;;;;;;;;;;14.58;59.58;97700.66;4947893;29;20403;-76
2023/10/23 11:20:31;;;;;;;;;;;;;;;14.58;59.02;97695.97;4943149;28;19922;-76
2023/10/23 11:23:21;;;;;;;;;;;;;;;14.56;58.93;97692.78;4955839;28;20017;-76
2023/10/23 11:26:09;;;;;;;;;;;;;;;14.63;58.95;97692.22;4964444;28;19922;-76
2023/10/23 11:28:57;;;;;;;;;;;;;;;14.67;58.84;97691.19;4957480;28;19976;-76
2023/10/23 11:31:45;;;;;;;;;;;;;;;14.70;59.20;97686.16;4954686;28;19922;-76
2023/10/23 11:34:33;;;;;;;;;;;;;;;14.66;58.75;97680.59;4964624;28;19923;-76
2023/10/23 11:37:24;;;;;;;;;;;;;;;14.65;58.54;97685.28;4968916;28;20005;-76
2023/10/23 11:40:13;;;;;;;;;;;;;;;14.70;59.07;97673.31;4941629;29;20001;-76
2023/10/23 11:43:02;;;;;;;;;;;;;;;14.69;59.35;97668.97;4959313;28;19922;-76
2023/10/23 11:45:50;;;;;;;;;;;;;;;14.71;58.68;97677.63;4952818;28;19930;-76
2023/10/23 11:48:39;;;;;;;;;;;;;;;14.70;59.43;97669.75;4942171;28;19923;-76
2023/10/23 11:51:27;;;;;;;;;;;;;;;14.74;59.70;97666.00;4934054;28;19930;-76
2023/10/23 11:54:16;;;;;;;;;;;;;;;14.77;60.00;97648.91;4958312;28;19922;-75
2023/10/23 11:57:06;;;;;;;;;;;;;;;14.80;59.60;97656.41;4951242;28;19927;-76
2023/10/23 11:59:54;;;;;;;;;;;;;;;14.84;59.18;97649.13;4871115;28;2652085;-75
2023/10/23 12:02:42;;;;;;;;;;;;;;;14.85;59.46;97653.44;4968174;28;19922;-75
2023/10/23 12:05:31;;;;;;;;;;;;;;;14.91;59.11;97645.78;4969437;28;20028;-75
2023/10/23 12:08:19;;;;;;;;;;;;;;;14.94;58.78;97645.09;4975342;28;19929;-76
2023/10/23 12:11:08;;;;;;;;;;;;;;;14.96;59.27;97634.59;4956690;28;20424;-76
2023/10/23 12:13:59;;;;;;;;;;;;;;;14.98;58.40;97632.34;4966066;28;19937;-76
2023/10/23 12:16:47;;;;;;;;;;;;;;;14.96;58.30;97629.13;4974158;28;19949;-76
2023/10/23 12:19:35;;;;;;;;;;;;;;;14.93;57.33;97627.91;4965299;28;19929;-76
2023/10/23 12:22:23;;;;;;;;;;;;;;;14.97;57.87;97628.00;4972647;28;19989;-76
2023/10/23 12:25:11;;;;;;;;;;;;;;;14.95;57.96;97630.28;4958336;28;19944;-76
2023/10/23 12:28:01;;;;;;;;;;;;;;;14.94;58.29;97621.28;4963723;28;19929;-77
2023/10/23 12:30:49;;;;;;;;;;;;;;;15.04;58.37;97620.00;4969709;28;20520;-76
2023/10/23 12:33:37;;;;;;;;;;;;;;;15.08;58.99;97626.38;4966354;28;19934;-76
2023/10/23 12:36:27;;;;;;;;;;;;;;;15.05;58.48;97616.13;4963906;28;19922;-76
2023/10/23 12:39:15;;;;;;;;;;;;;;;15.03;57.33;97612.94;4964918;28;19934;-74
2023/10/23 12:42:03;;;;;;;;;;;;;;;15.03;58.21;97606.69;4975626;28;19965;-75
2023/10/23 12:44:54;;;;;;;;;;;;;;;15.12;57.74;97610.03;4974921;28;19941;-74
2023/10/23 12:47:42;;;;;;;;;;;;;;;15.16;57.01;97605.47;4945466;28;19969;-74
2023/10/23 12:50:33;;;;;;;;;;;;;;;15.13;57.13;97612.44;4955091;28;19922;-75
2023/10/23 12:53:21;;;;;;;;;;;;;;;15.15;57.35;97612.09;4967027;28;19980;-74
2023/10/23 12:56:09;;;;;;;;;;;;;;;15.18;58.19;97604.00;4973700;28;19929;-74
2023/10/23 12:58:57;;;;;;;;;;;;;;;15.19;57.10;97597.38;4972311;28;20400;-74
2023/10/23 13:01:47;;;;;;;;;;;;;;;15.10;58.28;97591.25;4967520;28;20024;-74
2023/10/23 13:04:35;;;;;;;;;;;;;;;15.06;57.66;97581.34;4967129;28;19929;-75
2023/10/23 13:07:23;;;;;;;;;;;;;;;15.04;57.47;97573.50;4963760;28;19922;-75
2023/10/23 13:10:11;;;;;;;;;;;;;;;15.03;57.56;97569.16;4971732;28;19929;-75
2023/10/23 13:12:59;;;;;;;;;;;;;;;15.10;57.49;97569.34;4969541;28;20257;-75
2023/10/23 13:15:47;;;;;;;;;;;;;;;15.10;56.95;97568.56;4971868;28;20384;-75
2023/10/23 13:18:37;;;;;;;;;;;;;;;15.04;56.46;97554.34;4973163;28;20321;-75
2023/10/23 13:21:40;;;;;;;;;;;;;;;15.09;57.75;97542.34;4962804;28;20251;-74
2023/10/23 13:24:28;;;;;;;;;;;;;;;15.15;57.44;97540.94;4963592;28;20069;-74
2023/10/23 13:27:16;;;;;;;;;;;;;;;15.17;57.54;97533.97;4960732;28;19928;-74
2023/10/23 13:30:05;;;;;;;;;;;;;;;15.19;57.36;97530.91;4963943;28;20030;-75
2023/10/23 13:32:53;;;;;;;;;;;;;;;15.15;56.96;97538.22;4950767;28;20004;-75
2023/10/23 13:35:42;;;;;;;;;;;;;;;15.14;56.46;97537.41;4962973;28;20547;-75
2023/10/23 13:38:32;;;;;;;;;;;;;;;15.07;55.73;97530.94;4969512;28;19933;-75
2023/10/23 13:41:20;;;;;;;;;;;;;;;15.00;56.54;97520.63;4957964;28;19945;-75
2023/10/23 13:44:08;;;;;;;;;;;;;;;15.02;57.09;97521.06;4957519;28;19929;-75
2023/10/23 13:46:57;;;;;;;;;;;;;;;15.05;56.45;97516.84;4965470;28;20284;-75
2023/10/23 13:49:45;;;;;;;;;;;;;;;15.08;57.23;97525.16;4961018;28;20013;-75
2023/10/23 13:52:34;;;;;;;;;;;;;;;15.07;57.80;97531.75;4971952;28;20020;-75
2023/10/23 13:55:22;;;;;;;;;;;;;;;15.07;59.17;97531.75;4956140;28;19929;-75
2023/10/23 13:58:10;;;;;;;;;;;;;;;15.09;59.17;97523.19;4966878;28;19985;-75
2023/10/23 14:00:59;;;;;;;;;;;;;;;15.10;59.54;97542.00;4965750;28;20332;-75
2023/10/23 14:03:47;;;;;;;;;;;;;;;15.04;59.92;97534.41;4965845;28;19931;-75
2023/10/23 14:06:36;;;;;;;;;;;;;;;15.06;59.71;97535.63;4949012;28;19941;-75
2023/10/23 14:09:25;;;;;;;;;;;;;;;15.10;60.02;97520.09;4967689;28;19923;-75
2023/10/23 14:12:29;;;;;;;;;;;;;;;15.09;59.60;97518.53;4966255;28;19929;-74
2023/10/23 14:15:18;;;;;;;;;;;;;;;15.17;58.64;97514.03;4960537;28;19930;-74
2023/10/23 14:18:06;;;;;;;;;;;;;;;15.19;58.96;97518.00;4961745;28;19922;-75
2023/10/23 14:20:54;;;;;;;;;;;;;;;15.20;59.09;97503.19;4965818;28;19929;-75
2023/10/23 14:23:42;;;;;;;;;;;;;;;15.23;59.05;97500.88;4964101;28;19922;-74
2023/10/23 14:26:32;;;;;;;;;;;;;;;15.22;58.08;97496.56;4961011;28;20427;-74
2023/10/23 14:29:20;;;;;;;;;;;;;;;15.29;58.41;97491.28;4969326;28;20479;-75
2023/10/23 14:32:08;;;;;;;;;;;;;;;15.17;58.49;97490.19;4956249;28;19929;-75
2023/10/23 14:34:57;;;;;;;;;;;;;;;15.22;58.89;97483.66;4965269;28;19922;-75
2023/10/23 14:37:45;;;;;;;;;;;;;;;15.22;58.29;97482.88;4947626;28;20356;-74
2023/10/23 14:40:33;;;;;;;;;;;;;;;15.20;58.93;97464.88;4952788;28;20065;-76